Terminal Aerodrome Forecast
Issued by NWS

Home | Current Version | Previous Version | Text Only | Print | Product List | Glossary On
Versions: 1 2 3 4 5 6 7 8 9 10 11 12 13 14 15 16 17 18 19 20 21 22 23 24 25 26 27 28 29 30 31 32 33 34 35 36 37 38 39
000
FTUS45 KBOU 290115 AAA
TAFBJC
TAF AMD
KBJC 290115Z 2901/2924 33012KT P6SM FEW070 SCT120 BKN200
     FM290200 24008KT P6SM SCT120 BKN200
     FM290800 28007KT P6SM SCT050 BKN100
     FM291030 02010G18KT P6SM VCSH SCT020 OVC040
      TEMPO 2912/2914 01012G22KT 2SM -SN BR SCT010 BKN018
     FM291400 01010G20KT 1SM -SN BR BKN004 OVC010
     FM291800 04009KT 3/4SM -SN BR OVC005
      TEMPO 2920/2924 1/2SM SN VV003=

USA.gov is the U.S. government's official web portal to all federal, state and local government web resources and services.